Startpagina
METAR-TAF:

METAR-TAF

Vliegvelden :

Luchthaven Pointe-Noire

Pointe-Noire, Congo

breedte: 04-49S, lengte: 011-54E, hoogte: 17 m

Actueel weer

Dit bericht is 26 minuten geleden gemaakt, om 11:00 UTC
Wind 10 kt uit het zuidzuidwesten
Temperatuur 30°C
Vochtigheid 75%
Druk 1011 hPa
Zicht 10 km of meer
Verspreide wolken op 2000 ft

METAR: FCPP 161100Z 21010KT 9999 SCT020 30/25 Q1011 NOSIG

Tijdstip: 12:26 (11:26 UTC)

Verwachting

Dit bericht is 6 uur en het 26 minuten geleden gemaakt, om 05:00 UTC
Verwachting geldig van 16 om 06 UTC tot 17 om 06 UTC
Wind 6 kt uit het zuiden
Zicht: 8000 m
Verspreide wolken op 1000 ft
Gebroken wolken op 2000 ft
Wijzigt naar
van 16 om 12 UTC tot 16 om 14 UTC
Verspreide wolken op 2000 ft
Weinig wolken op 3000 ft, Cumulonimbus.
Wijzigt naar
van 16 om 17 UTC tot 16 om 19 UTC
Verspreide wolken op 1800 ft

TAF: FCPP 160500Z 1606/1706 18006KT 8000 SCT010 BKN020 BECMG 1612/1614 SCT020 FEW030CB BECMG 1617/1619 SCT018

Waarnemingen en weersverwachtingen van meer dan 4000 vliegvelden (METAR en TAF).

De beschikbare stations zijn de gele en rode punten op de kaart.

Ga met uw muis naar het station om de naam te zien.

Klik dan om waarnemingen en weersverwachtingen te zien.

kaart wijzigen: klik op de groene knoppen met een zwart kruis om in te zoomen, op de groene knop met een streepje om uit te zoomen of op de groene pijlen voor aangrenzende kaarten.


METAR-TAF: